Time;durP1;ratioP1;P1;durP2;ratioP2;P2;SDS_P1;SDS_P2;PMS_P1;PMS_P2;Temp;Humidity;BMP_temperature;BMP_pressure;BME280_temperature;BME280_humidity;BME280_pressure;Samples;Min_cycle;Max_cycle;Signal;HPM_P1;HPM_P2
2023/02/01 00:01:19;;;;;;;14.63;13.40;;;6.30;99.90;;;;;;4992975;28;20515;-46
2023/02/01 00:03:45;;;;;;;14.60;13.50;;;6.20;99.90;;;;;;4992951;28;20195;-47
2023/02/01 00:06:11;;;;;;;14.23;13.27;;;6.10;99.90;;;;;;4992936;28;20291;-47
2023/02/01 00:08:36;;;;;;;14.00;13.00;;;6.10;99.90;;;;;;4990468;28;20184;-46
2023/02/01 00:11:05;;;;;;;14.73;13.60;;;6.10;99.90;;;;;;4990520;28;20184;-47
2023/02/01 00:13:33;;;;;;;14.20;13.20;;;6.00;99.90;;;;;;4996353;28;20187;-45
2023/02/01 00:16:06;;;;;;;14.23;13.20;;;6.00;99.90;;;;;;4991924;28;20191;-48
2023/02/01 00:18:32;;;;;;;14.00;13.00;;;6.00;99.90;;;;;;4990272;28;20269;-46
2023/02/01 00:20:58;;;;;;;13.90;13.10;;;6.00;99.90;;;;;;4989982;28;20270;-49
2023/02/01 00:23:24;;;;;;;13.73;12.93;;;6.10;99.90;;;;;;5002884;28;20239;-46
2023/02/01 00:25:49;;;;;;;14.97;13.77;;;6.10;99.90;;;;;;4996187;28;20584;-44
2023/02/01 00:28:15;;;;;;;14.43;13.43;;;6.10;99.90;;;;;;5002645;28;20261;-48
2023/02/01 00:30:41;;;;;;;14.30;13.50;;;6.00;99.90;;;;;;4996522;28;20221;-48
2023/02/01 00:33:06;;;;;;;14.17;13.00;;;6.00;99.90;;;;;;4997028;28;20192;-47
2023/02/01 00:35:34;;;;;;;14.53;13.53;;;6.00;99.90;;;;;;4987598;28;20926;-46
2023/02/01 00:38:00;;;;;;;13.85;12.95;;;6.00;99.90;;;;;;4996581;28;20179;-44
2023/02/01 00:40:26;;;;;;;14.50;13.60;;;6.10;99.90;;;;;;5001317;28;20198;-47
2023/02/01 00:42:51;;;;;;;14.00;12.97;;;6.10;99.90;;;;;;4993021;28;20474;-46
2023/02/01 00:45:18;;;;;;;14.23;13.20;;;6.10;99.90;;;;;;4990802;28;20809;-49
2023/02/01 00:47:43;;;;;;;13.63;12.73;;;6.10;99.90;;;;;;4991893;28;20191;-45
2023/02/01 00:50:09;;;;;;;15.07;13.70;;;6.00;99.90;;;;;;4998334;28;20639;-46
2023/02/01 00:52:35;;;;;;;14.50;13.40;;;6.10;99.90;;;;;;4994184;28;20219;-48
2023/02/01 00:55:01;;;;;;;14.60;13.60;;;6.10;99.90;;;;;;4995175;28;20218;-44
2023/02/01 00:57:27;;;;;;;14.30;13.40;;;6.10;99.90;;;;;;4995992;28;20435;-45
2023/02/01 00:59:52;;;;;;;14.20;13.30;;;6.10;99.90;;;;;;5004191;28;20590;-44
2023/02/01 01:02:18;;;;;;;14.27;13.27;;;6.10;99.90;;;;;;5005826;28;20217;-45
2023/02/01 01:04:43;;;;;;;14.10;13.20;;;6.10;99.90;;;;;;5006262;28;20186;-46
2023/02/01 01:07:09;;;;;;;14.30;13.20;;;6.10;99.90;;;;;;5009780;28;20278;-45
2023/02/01 01:09:35;;;;;;;14.90;13.50;;;6.20;99.90;;;;;;4994001;28;20195;-45
2023/02/01 01:12:02;;;;;;;14.97;13.60;;;6.10;99.90;;;;;;4998442;28;20672;-46
2023/02/01 01:14:29;;;;;;;14.10;12.85;;;6.10;99.90;;;;;;4996436;28;20182;-47
2023/02/01 01:16:54;;;;;;;14.48;13.50;;;6.10;99.90;;;;;;4997073;28;20207;-45
2023/02/01 01:19:20;;;;;;;13.77;12.90;;;6.10;99.90;;;;;;4993073;28;20238;-45
2023/02/01 01:21:46;;;;;;;13.50;12.40;;;6.10;99.90;;;;;;4998048;28;20685;-50
2023/02/01 01:24:11;;;;;;;14.50;13.30;;;6.10;99.90;;;;;;4993556;28;20202;-45
2023/02/01 01:26:37;;;;;;;13.90;12.80;;;6.10;99.90;;;;;;4994897;28;20203;-45
2023/02/01 01:29:03;;;;;;;14.40;13.40;;;6.00;99.90;;;;;;4993004;28;20195;-44
2023/02/01 01:31:30;;;;;;;14.20;13.13;;;6.00;99.90;;;;;;4996119;28;20184;-44
2023/02/01 01:33:58;;;;;;;13.45;12.65;;;6.00;99.90;;;;;;4995534;28;20647;-45
2023/02/01 01:36:24;;;;;;;13.57;12.57;;;6.00;99.90;;;;;;4993950;28;20191;-46
2023/02/01 01:38:51;;;;;;;14.35;13.23;;;6.10;99.90;;;;;;5003387;28;20537;-48
2023/02/01 01:41:20;;;;;;;13.95;12.77;;;6.10;99.90;;;;;;5006332;28;20230;-51
2023/02/01 01:43:56;;;;;;;15.10;12.80;;;6.10;99.90;;;;;;4993164;28;20194;-45
2023/02/01 01:46:25;;;;;;;13.40;12.38;;;6.10;99.90;;;;;;5000624;28;20212;-47
2023/02/01 01:49:01;;;;;;;13.30;12.40;;;6.10;99.90;;;;;;5003249;28;20183;-47
2023/02/01 01:51:29;;;;;;;14.75;12.52;;;6.10;99.90;;;;;;4997798;28;20187;-47
2023/02/01 01:54:08;;;;;;;13.15;12.35;;;6.20;99.90;;;;;;5000140;28;20749;-46
2023/02/01 01:56:34;;;;;;;13.48;12.57;;;6.10;99.90;;;;;;4991882;28;20187;-44
2023/02/01 01:59:01;;;;;;;13.75;12.55;;;6.10;99.90;;;;;;5008283;28;20232;-47
2023/02/01 02:01:27;;;;;;;13.25;12.35;;;6.20;99.90;;;;;;4998013;28;20583;-46
2023/02/01 02:03:54;;;;;;;12.95;12.05;;;6.20;99.90;;;;;;4998977;28;20230;-46
2023/02/01 02:06:35;;;;;;;13.20;11.98;;;6.10;99.90;;;;;;5000835;28;20187;-44
2023/02/01 02:09:00;;;;;;;13.23;12.20;;;6.10;99.90;;;;;;5004495;28;20253;-49
2023/02/01 02:11:26;;;;;;;13.33;12.30;;;6.20;99.90;;;;;;5003130;28;20195;-43
2023/02/01 02:13:55;;;;;;;13.33;12.40;;;6.10;99.90;;;;;;5000258;28;20202;-49
2023/02/01 02:16:40;;;;;;;13.45;12.30;;;6.10;99.90;;;;;;4997534;28;21054;-48
2023/02/01 02:19:31;;;;;;;13.77;12.88;;;6.10;99.90;;;;;;4992578;28;20318;-46
2023/02/01 02:22:40;;;;;;;13.00;11.85;;;6.10;99.90;;;;;;4999340;28;20207;-43
2023/02/01 02:25:34;;;;;;;13.40;12.25;;;6.10;99.90;;;;;;4999620;28;20628;-48
2023/02/01 02:28:02;;;;;;;12.63;11.73;;;6.20;99.90;;;;;;5004759;28;20184;-47
2023/02/01 02:31:12;;;;;;;12.98;12.02;;;6.20;99.90;;;;;;4999963;28;20191;-47
2023/02/01 02:34:04;;;;;;;12.90;12.20;;;6.20;99.90;;;;;;4943101;28;20237;-44
2023/02/01 02:36:48;;;;;;;12.57;11.68;;;6.10;99.90;;;;;;4950558;28;20231;-49
2023/02/01 02:39:34;;;;;;;12.70;11.73;;;6.00;99.90;;;;;;4984552;28;20192;-45
2023/02/01 02:48:25;;;;;;;13.25;12.13;;;6.10;99.90;;;;;;4995909;28;20187;-46
2023/02/01 03:05:40;;;;;;;13.52;12.32;;;5.90;99.90;;;;;;4994517;28;20375;-45
2023/02/01 03:08:13;;;;;;;13.95;12.95;;;5.90;99.90;;;;;;4993448;28;20188;-48
2023/02/01 03:10:48;;;;;;;14.05;12.85;;;5.90;99.90;;;;;;5000549;28;20184;-47
2023/02/01 03:13:31;;;;;;;13.52;12.32;;;5.90;99.90;;;;;;4996467;28;20218;-48
2023/02/01 03:16:07;;;;;;;13.70;12.75;;;5.90;99.90;;;;;;4994820;28;20670;-44
2023/02/01 03:18:56;;;;;;;13.70;12.65;;;6.00;99.90;;;;;;4993355;28;20207;-49
2023/02/01 03:21:36;;;;;;;14.07;13.00;;;6.00;99.90;;;;;;4987692;28;20208;-46
2023/02/01 03:24:17;;;;;;;13.90;12.77;;;6.00;99.90;;;;;;4991700;28;20180;-49
2023/02/01 03:26:58;;;;;;;13.07;12.18;;;6.00;99.90;;;;;;4999260;28;20183;-51
2023/02/01 03:29:33;;;;;;;12.95;11.75;;;6.00;99.90;;;;;;5000719;28;20210;-45
2023/02/01 03:31:59;;;;;;;13.18;12.10;;;6.00;99.90;;;;;;4991539;28;20645;-46
2023/02/01 03:34:24;;;;;;;14.10;13.00;;;6.00;99.90;;;;;;5000319;28;20190;-47
2023/02/01 03:37:04;;;;;;;13.10;12.00;;;6.00;99.90;;;;;;4997885;28;20213;-46
2023/02/01 03:39:42;;;;;;;13.77;12.50;;;6.10;99.90;;;;;;4996975;28;20199;-45
2023/02/01 03:42:35;;;;;;;13.50;12.50;;;6.10;99.90;;;;;;5010307;28;20808;-44
2023/02/01 03:45:10;;;;;;;13.63;12.50;;;6.10;99.90;;;;;;5003335;28;20616;-47
2023/02/01 03:47:39;;;;;;;12.90;11.80;;;6.00;99.90;;;;;;5001919;28;20193;-48
2023/02/01 03:50:09;;;;;;;13.90;12.80;;;6.10;99.90;;;;;;4991039;28;20188;-46
2023/02/01 03:52:45;;;;;;;13.43;12.38;;;6.10;99.90;;;;;;4993106;28;20188;-49
2023/02/01 03:55:13;;;;;;;13.98;12.82;;;6.20;99.90;;;;;;4994862;28;20266;-48
2023/02/01 03:57:45;;;;;;;12.57;11.75;;;6.20;99.90;;;;;;4993141;28;20195;-46
2023/02/01 04:00:22;;;;;;;12.85;12.02;;;6.20;99.90;;;;;;4999797;28;20557;-45
2023/02/01 04:02:48;;;;;;;13.20;12.10;;;6.10;99.90;;;;;;4994794;28;20211;-46
2023/02/01 04:05:14;;;;;;;11.83;10.93;;;6.20;99.90;;;;;;4995204;28;20682;-46
2023/02/01 04:07:40;;;;;;;12.93;11.87;;;6.20;99.90;;;;;;4991033;28;20558;-49
2023/02/01 04:10:06;;;;;;;13.17;12.07;;;6.20;99.90;;;;;;5001161;28;21021;-46
2023/02/01 04:12:32;;;;;;;13.27;12.43;;;6.10;99.90;;;;;;4995768;28;20429;-47
2023/02/01 04:14:58;;;;;;;12.80;11.90;;;6.10;99.90;;;;;;4997087;28;20630;-48
2023/02/01 04:17:23;;;;;;;13.20;12.20;;;6.10;99.90;;;;;;4998557;28;20191;-47
2023/02/01 04:19:49;;;;;;;12.10;11.10;;;6.10;99.90;;;;;;4990261;28;20493;-43
2023/02/01 04:22:15;;;;;;;13.07;11.97;;;6.00;99.90;;;;;;4996242;28;20218;-44
2023/02/01 04:24:40;;;;;;;13.17;11.93;;;6.10;99.90;;;;;;4993352;28;20191;-51
2023/02/01 04:27:06;;;;;;;12.50;11.53;;;6.10;99.90;;;;;;4998597;28;20187;-48
2023/02/01 04:29:33;;;;;;;13.20;12.30;;;6.10;99.90;;;;;;4991820;28;20195;-45
2023/02/01 04:31:58;;;;;;;12.10;11.40;;;6.10;99.90;;;;;;4993469;28;20194;-47
2023/02/01 04:34:24;;;;;;;13.17;12.00;;;6.20;99.90;;;;;;4993636;28;20179;-46
2023/02/01 04:36:50;;;;;;;13.15;12.15;;;6.20;99.90;;;;;;4993819;28;20269;-48
2023/02/01 04:39:16;;;;;;;12.50;11.70;;;6.20;99.90;;;;;;5002128;28;20218;-48
2023/02/01 04:41:42;;;;;;;12.47;11.47;;;6.20;99.90;;;;;;4995410;28;20269;-48
2023/02/01 04:44:19;;;;;;;13.35;12.13;;;6.20;99.90;;;;;;4996430;28;20231;-49
2023/02/01 04:46:46;;;;;;;12.73;11.80;;;6.20;99.90;;;;;;4994809;28;20307;-47
2023/02/01 04:49:13;;;;;;;13.05;11.70;;;6.20;99.90;;;;;;4993049;28;20263;-47
2023/02/01 04:51:38;;;;;;;14.18;11.25;;;6.20;99.90;;;;;;4990435;28;20192;-50
2023/02/01 04:54:04;;;;;;;12.43;11.43;;;6.20;99.90;;;;;;4990384;28;20183;-46
2023/02/01 04:56:30;;;;;;;12.00;11.23;;;6.10;99.90;;;;;;4992681;28;20206;-47
2023/02/01 04:58:56;;;;;;;12.00;10.70;;;6.20;99.90;;;;;;5003954;28;20433;-47
2023/02/01 05:01:24;;;;;;;12.83;11.83;;;6.20;99.90;;;;;;4999301;28;20194;-46
2023/02/01 05:03:50;;;;;;;12.60;11.55;;;6.20;99.90;;;;;;4989510;28;20218;-50
2023/02/01 05:06:16;;;;;;;12.90;11.90;;;6.10;99.90;;;;;;4996044;28;20682;-48
2023/02/01 05:08:41;;;;;;;12.87;11.80;;;6.20;99.90;;;;;;4990315;28;20187;-47
2023/02/01 05:13:47;;;;;;;13.40;11.53;;;6.10;99.90;;;;;;5004520;28;20534;-46
2023/02/01 05:13:52;;;;;;;12.93;12.02;;;6.10;99.90;;;;;;4991675;28;20183;-47
2023/02/01 05:16:18;;;;;;;13.10;12.17;;;6.10;99.90;;;;;;4989982;28;20689;-47
2023/02/01 05:18:44;;;;;;;12.90;11.17;;;6.20;99.90;;;;;;4995980;28;20199;-46
2023/02/01 05:21:09;;;;;;;13.03;11.50;;;6.10;99.90;;;;;;5000506;28;20187;-47
2023/02/01 05:24:09;;;;;;;11.80;11.00;;;6.20;99.90;;;;;;4991273;28;20259;-47
2023/02/01 05:26:21;;;;;;;11.18;10.43;;;6.20;99.90;;;;;;4995339;28;20333;-48
2023/02/01 05:28:46;;;;;;;13.50;12.50;;;6.20;99.90;;;;;;5000007;28;20274;-48
2023/02/01 05:31:12;;;;;;;11.77;10.77;;;6.30;99.90;;;;;;4996567;28;20180;-46
2023/02/01 05:33:37;;;;;;;12.03;10.80;;;6.30;99.90;;;;;;4997732;28;20199;-47
2023/02/01 05:36:03;;;;;;;12.67;11.70;;;6.30;99.90;;;;;;4992592;28;20681;-45
2023/02/01 05:38:31;;;;;;;13.57;12.37;;;6.20;99.90;;;;;;4999883;28;20309;-47
2023/02/01 05:40:57;;;;;;;13.70;12.45;;;6.20;99.90;;;;;;4988977;28;20474;-47
2023/02/01 05:43:23;;;;;;;11.50;10.60;;;6.20;99.90;;;;;;4992714;28;20215;-47
2023/02/01 05:45:48;;;;;;;11.80;10.80;;;6.30;99.90;;;;;;4992851;28;20183;-47
2023/02/01 05:48:14;;;;;;;12.10;11.10;;;6.30;99.90;;;;;;4992946;28;20183;-46
2023/02/01 05:50:40;;;;;;;11.80;10.80;;;6.30;99.90;;;;;;4992994;28;20218;-45
2023/02/01 05:53:05;;;;;;;11.37;10.33;;;6.20;99.90;;;;;;4992556;28;20192;-47
2023/02/01 05:55:32;;;;;;;13.47;12.20;;;6.30;99.90;;;;;;4992476;28;20266;-46
2023/02/01 05:57:57;;;;;;;12.23;11.32;;;6.20;99.90;;;;;;4992615;28;20298;-45
2023/02/01 06:00:23;;;;;;;11.83;10.57;;;6.20;99.90;;;;;;5002119;28;20344;-46
2023/02/01 06:02:49;;;;;;;11.38;10.48;;;6.20;99.90;;;;;;5011304;28;20565;-48
2023/02/01 06:05:14;;;;;;;12.50;11.40;;;6.20;99.90;;;;;;4999240;28;20186;-48
2023/02/01 06:07:40;;;;;;;11.80;10.67;;;6.20;99.90;;;;;;5012216;28;20187;-46
2023/02/01 06:10:06;;;;;;;10.80;10.10;;;6.20;99.90;;;;;;5011885;28;20175;-45
2023/02/01 06:12:32;;;;;;;12.00;11.07;;;6.20;99.90;;;;;;5012005;28;20214;-45
2023/02/01 06:14:58;;;;;;;12.63;11.30;;;6.20;99.90;;;;;;4992604;28;20525;-45
2023/02/01 06:17:24;;;;;;;12.38;11.48;;;6.20;99.90;;;;;;4992283;28;20423;-47
2023/02/01 06:19:50;;;;;;;12.30;11.13;;;6.20;99.90;;;;;;4993346;28;20191;-44
2023/02/01 06:22:16;;;;;;;12.50;11.30;;;6.20;99.90;;;;;;4992212;28;20960;-45
2023/02/01 06:24:42;;;;;;;12.50;11.43;;;6.20;99.90;;;;;;4995696;28;20419;-45
2023/02/01 06:27:09;;;;;;;12.65;11.55;;;6.20;99.90;;;;;;4998861;28;20270;-47
2023/02/01 06:29:35;;;;;;;12.70;10.43;;;6.20;99.90;;;;;;5011897;28;20272;-52
2023/02/01 06:32:01;;;;;;;12.35;11.25;;;6.20;99.90;;;;;;5011963;28;20183;-44
2023/02/01 06:34:27;;;;;;;12.10;11.03;;;6.20;99.90;;;;;;5007981;28;20187;-50
2023/02/01 06:36:54;;;;;;;11.43;10.43;;;6.20;99.90;;;;;;4992268;28;20627;-49
2023/02/01 06:39:20;;;;;;;11.88;10.77;;;6.20;99.90;;;;;;4991949;28;20184;-48
2023/02/01 06:41:47;;;;;;;13.07;11.53;;;6.20;99.90;;;;;;4992315;28;20563;-47
2023/02/01 06:44:12;;;;;;;12.10;11.13;;;6.20;99.90;;;;;;4988688;28;20706;-50
2023/02/01 06:46:38;;;;;;;11.87;10.97;;;6.20;99.90;;;;;;4991905;28;20267;-45
2023/02/01 06:49:03;;;;;;;12.33;11.23;;;6.10;99.90;;;;;;4991885;28;20198;-45
2023/02/01 06:51:29;;;;;;;13.07;11.90;;;6.20;99.90;;;;;;4991844;28;20238;-45
2023/02/01 06:53:55;;;;;;;12.20;11.20;;;6.30;99.90;;;;;;4991433;28;20192;-48
2023/02/01 06:56:21;;;;;;;12.93;11.88;;;6.20;99.90;;;;;;4991807;28;20655;-49
2023/02/01 06:58:47;;;;;;;13.10;11.87;;;6.10;99.90;;;;;;5002428;28;20218;-44
2023/02/01 07:01:13;;;;;;;12.83;11.60;;;6.10;99.90;;;;;;4992754;28;20917;-48
2023/02/01 07:03:38;;;;;;;12.55;11.15;;;6.00;99.90;;;;;;4991403;28;20562;-50
2023/02/01 07:06:05;;;;;;;13.20;12.20;;;6.00;99.90;;;;;;4991641;28;20176;-46
2023/02/01 07:08:33;;;;;;;12.80;11.70;;;6.00;99.90;;;;;;4991244;28;20194;-47
2023/02/01 07:11:05;;;;;;;13.38;12.38;;;6.00;99.90;;;;;;4991598;28;20198;-50
2023/02/01 07:13:31;;;;;;;12.93;11.85;;;6.10;99.90;;;;;;4992678;28;20199;-46
2023/02/01 07:16:01;;;;;;;12.90;11.80;;;6.10;99.90;;;;;;4991759;28;20180;-43
2023/02/01 07:18:28;;;;;;;12.27;11.20;;;6.10;99.90;;;;;;4991045;28;20184;-47
2023/02/01 07:20:55;;;;;;;11.85;11.02;;;6.10;99.90;;;;;;4991437;28;20179;-46
2023/02/01 07:23:22;;;;;;;12.98;12.00;;;6.00;99.90;;;;;;4992728;28;20227;-45
2023/02/01 07:25:48;;;;;;;13.52;12.52;;;5.90;99.90;;;;;;4989867;28;20192;-45
2023/02/01 07:28:14;;;;;;;13.27;12.33;;;5.90;99.90;;;;;;5005658;28;20285;-45
2023/02/01 07:30:39;;;;;;;13.80;12.38;;;5.70;99.90;;;;;;4990087;28;20210;-43
2023/02/01 07:33:06;;;;;;;14.77;13.70;;;5.60;99.90;;;;;;5006086;28;20747;-44
2023/02/01 07:35:32;;;;;;;15.63;14.00;;;5.50;99.90;;;;;;5010918;28;20191;-43
2023/02/01 07:37:58;;;;;;;14.43;13.33;;;5.40;99.90;;;;;;5010365;28;20252;-45
2023/02/01 07:40:28;;;;;;;15.07;13.97;;;5.20;99.90;;;;;;5010466;28;20194;-46
2023/02/01 07:42:55;;;;;;;16.90;14.18;;;5.20;99.90;;;;;;4992103;28;20473;-46
2023/02/01 07:45:21;;;;;;;16.67;15.05;;;5.10;99.90;;;;;;4990628;28;20290;-48
2023/02/01 07:47:47;;;;;;;17.35;15.75;;;5.00;99.90;;;;;;4991174;28;20182;-44
2023/02/01 07:50:14;;;;;;;16.48;15.10;;;5.10;99.90;;;;;;4990744;28;20213;-47
2023/02/01 07:52:40;;;;;;;17.70;16.00;;;5.00;99.90;;;;;;4990684;28;20271;-44
2023/02/01 07:55:06;;;;;;;16.63;15.35;;;5.00;99.90;;;;;;4990679;28;20186;-46
2023/02/01 07:57:32;;;;;;;15.05;13.88;;;5.00;99.90;;;;;;4990530;28;20210;-46
2023/02/01 08:02:42;;;;;;;15.55;14.20;;;4.90;99.90;;;;;;4990554;28;20316;-46
2023/02/01 08:05:08;;;;;;;15.53;14.03;;;4.90;99.90;;;;;;4989886;28;20190;-46
2023/02/01 08:07:33;;;;;;;15.10;13.90;;;5.00;99.90;;;;;;4990581;28;20183;-49
2023/02/01 08:09:59;;;;;;;16.60;15.40;;;5.00;99.90;;;;;;4990391;28;20179;-43
2023/02/01 08:12:26;;;;;;;15.63;14.53;;;5.10;99.90;;;;;;4997137;28;20192;-45
2023/02/01 08:14:53;;;;;;;15.88;14.73;;;5.20;99.90;;;;;;4991798;28;20523;-45
2023/02/01 08:17:19;;;;;;;16.63;15.25;;;5.20;99.90;;;;;;5009588;28;20174;-45
2023/02/01 08:19:45;;;;;;;14.23;13.15;;;5.20;99.90;;;;;;4998679;28;20671;-47
2023/02/01 08:22:10;;;;;;;14.83;13.47;;;5.20;99.90;;;;;;4995542;28;20206;-44
2023/02/01 08:24:39;;;;;;;15.00;14.00;;;5.20;99.90;;;;;;4991549;28;20238;-47
2023/02/01 08:27:05;;;;;;;15.10;13.90;;;5.30;99.90;;;;;;4990300;28;20497;-45
2023/02/01 08:29:31;;;;;;;15.73;14.20;;;5.30;99.90;;;;;;4990096;28;20179;-50
2023/02/01 08:31:56;;;;;;;16.07;14.80;;;5.30;99.90;;;;;;4990306;28;20176;-46
2023/02/01 08:34:22;;;;;;;15.67;14.67;;;5.40;99.90;;;;;;4990347;28;20185;-44
2023/02/01 08:36:48;;;;;;;16.70;15.30;;;5.40;99.90;;;;;;4990393;28;20183;-43
2023/02/01 08:39:13;;;;;;;15.27;14.27;;;5.20;99.90;;;;;;4990094;28;20227;-45
2023/02/01 08:41:39;;;;;;;15.80;14.20;;;5.20;99.90;;;;;;4989738;28;20228;-47
2023/02/01 08:44:05;;;;;;;16.50;14.80;;;5.20;99.90;;;;;;4989932;28;20668;-46
2023/02/01 08:46:31;;;;;;;15.90;14.43;;;5.20;99.90;;;;;;4990158;28;20158;-44
2023/02/01 08:48:57;;;;;;;14.10;13.20;;;5.20;99.90;;;;;;4989670;28;20217;-46
2023/02/01 08:51:23;;;;;;;13.52;12.55;;;5.30;99.90;;;;;;4989923;28;20523;-47
2023/02/01 08:53:49;;;;;;;16.10;14.80;;;5.40;99.90;;;;;;4989834;28;20190;-44
2023/02/01 08:56:17;;;;;;;14.82;13.75;;;5.50;99.90;;;;;;4988632;28;20419;-44
2023/02/01 08:58:43;;;;;;;14.68;13.43;;;5.60;99.90;;;;;;4999266;28;20267;-47
2023/02/01 09:01:12;;;;;;;14.32;13.25;;;5.70;99.90;;;;;;5029116;28;20258;-46
2023/02/01 09:03:38;;;;;;;13.48;12.57;;;5.80;99.90;;;;;;5029025;28;20262;-44
2023/02/01 09:06:07;;;;;;;14.00;12.73;;;5.90;99.90;;;;;;5029152;28;20213;-45
2023/02/01 09:08:33;;;;;;;12.82;11.82;;;6.00;99.90;;;;;;5029050;28;20533;-48
2023/02/01 09:11:05;;;;;;;12.20;11.30;;;6.10;99.90;;;;;;5029192;28;20610;-44
2023/02/01 09:13:31;;;;;;;11.02;9.88;;;6.30;99.90;;;;;;5029010;28;20681;-43
2023/02/01 09:15:59;;;;;;;16.33;11.35;;;6.40;99.90;;;;;;5029273;28;20648;-43
2023/02/01 09:18:25;;;;;;;11.32;10.35;;;6.40;99.90;;;;;;5032997;28;20181;-47
2023/02/01 09:20:51;;;;;;;12.82;11.70;;;6.40;99.90;;;;;;4995219;28;20231;-43
2023/02/01 09:23:17;;;;;;;9.70;8.93;;;6.50;99.90;;;;;;5000602;28;20219;-46
2023/02/01 09:25:42;;;;;;;11.17;10.17;;;6.60;99.90;;;;;;5004612;28;20190;-48
2023/02/01 09:28:08;;;;;;;12.10;9.90;;;6.50;99.90;;;;;;5001783;28;20179;-46
2023/02/01 09:30:35;;;;;;;11.43;10.57;;;6.50;99.90;;;;;;5002483;28;20422;-48
2023/02/01 09:33:01;;;;;;;12.35;11.60;;;6.50;99.90;;;;;;5012911;28;20771;-46
2023/02/01 09:35:27;;;;;;;12.90;11.70;;;6.50;99.90;;;;;;5004132;28;20188;-43
2023/02/01 09:37:52;;;;;;;11.50;10.50;;;6.40;99.90;;;;;;4994667;28;20183;-45
2023/02/01 09:40:19;;;;;;;11.43;10.50;;;6.20;99.90;;;;;;4994049;28;20183;-44
2023/02/01 09:43:15;;;;;;;11.80;10.90;;;6.20;99.90;;;;;;4993137;28;21024;-43
2023/02/01 09:46:25;;;;;;;11.95;10.85;;;5.90;99.90;;;;;;4993142;28;20641;-44
2023/02/01 09:48:58;;;;;;;13.30;12.02;;;5.90;99.90;;;;;;4988282;28;20192;-44
2023/02/01 09:51:37;;;;;;;12.48;11.57;;;5.80;99.90;;;;;;4993218;28;20321;-43
2023/02/01 09:54:05;;;;;;;15.13;14.07;;;5.70;99.90;;;;;;5003809;28;20194;-44
2023/02/01 09:56:46;;;;;;;16.77;15.57;;;5.60;99.90;;;;;;5012389;28;20240;-45
2023/02/01 09:59:44;;;;;;;17.20;16.20;;;5.50;99.90;;;;;;5021346;28;20177;-48
2023/02/01 10:02:17;;;;;;;16.38;15.43;;;5.10;99.90;;;;;;5032309;28;20209;-44
2023/02/01 10:04:44;;;;;;;16.67;15.43;;;5.00;99.90;;;;;;5032322;28;20235;-45
2023/02/01 10:07:22;;;;;;;16.10;15.10;;;4.80;99.90;;;;;;5032176;28;20174;-44
2023/02/01 10:10:00;;;;;;;16.90;15.80;;;4.70;99.90;;;;;;4993754;28;20191;-45
2023/02/01 10:12:50;;;;;;;16.92;15.82;;;4.60;99.90;;;;;;4993052;28;20181;-44
2023/02/01 10:15:18;;;;;;;17.23;16.00;;;4.60;99.90;;;;;;5000804;28;20193;-45
2023/02/01 10:18:00;;;;;;;17.38;15.57;;;4.50;99.90;;;;;;4996888;28;20980;-46
2023/02/01 10:21:02;;;;;;;16.08;15.07;;;4.40;99.90;;;;;;4992574;28;20538;-46
2023/02/01 10:23:40;;;;;;;15.70;14.80;;;4.40;99.90;;;;;;5008328;28;20684;-46
2023/02/01 10:26:12;;;;;;;16.17;15.10;;;4.30;99.90;;;;;;5011933;28;20189;-44
2023/02/01 10:28:39;;;;;;;16.17;15.13;;;4.30;99.90;;;;;;5011138;28;20371;-45
2023/02/01 10:31:08;;;;;;;16.30;15.18;;;4.20;99.90;;;;;;5011740;28;20186;-45
2023/02/01 10:33:38;;;;;;;16.20;15.10;;;4.20;99.90;;;;;;5005182;28;20190;-48
2023/02/01 10:36:25;;;;;;;15.77;14.68;;;4.20;99.90;;;;;;4992169;28;20212;-47
2023/02/01 10:38:50;;;;;;;16.98;15.90;;;4.20;99.90;;;;;;4991698;28;20184;-43
2023/02/01 10:41:21;;;;;;;17.03;16.00;;;4.30;99.90;;;;;;4991875;28;20333;-47
2023/02/01 10:43:54;;;;;;;17.20;15.95;;;4.20;99.90;;;;;;4992138;28;20252;-45
2023/02/01 10:46:21;;;;;;;17.48;16.33;;;4.30;99.90;;;;;;4991854;28;20238;-45
2023/02/01 10:48:48;;;;;;;16.40;15.20;;;4.30;99.90;;;;;;4991987;28;20191;-49
2023/02/01 10:51:20;;;;;;;16.42;15.32;;;4.40;99.90;;;;;;4991429;28;20613;-44
2023/02/01 10:53:52;;;;;;;16.73;15.52;;;4.50;99.90;;;;;;5003695;28;20193;-47
2023/02/01 10:56:24;;;;;;;16.92;15.68;;;4.50;99.90;;;;;;5011278;28;20194;-43
2023/02/01 10:58:51;;;;;;;15.90;14.70;;;4.60;99.90;;;;;;5016658;28;20239;-44
2023/02/01 11:01:24;;;;;;;17.65;16.17;;;4.70;99.90;;;;;;4991569;28;20201;-46
2023/02/01 11:03:57;;;;;;;16.88;15.65;;;4.80;99.90;;;;;;4991885;28;20211;-49
2023/02/01 11:06:40;;;;;;;16.75;15.35;;;5.00;99.90;;;;;;4991910;28;20564;-44
2023/02/01 11:09:06;;;;;;;17.35;15.80;;;5.10;99.90;;;;;;4991467;28;20245;-46
2023/02/01 11:11:32;;;;;;;16.37;14.67;;;5.20;99.90;;;;;;4991624;28;20704;-44
2023/02/01 11:14:00;;;;;;;16.40;14.95;;;5.20;99.90;;;;;;4991348;28;20637;-44
2023/02/01 11:16:37;;;;;;;17.05;15.75;;;5.20;99.90;;;;;;4991299;28;20274;-47
2023/02/01 11:19:03;;;;;;;15.73;14.63;;;5.30;99.90;;;;;;4991248;28;20213;-45
2023/02/01 11:21:30;;;;;;;17.38;16.00;;;5.30;99.90;;;;;;4992271;28;20905;-45
2023/02/01 11:24:01;;;;;;;16.17;14.90;;;5.40;99.90;;;;;;4996553;28;20301;-46
2023/02/01 11:26:27;;;;;;;16.52;15.13;;;5.50;99.90;;;;;;5010591;28;20251;-44
2023/02/01 11:29:01;;;;;;;15.88;14.48;;;5.60;99.90;;;;;;5010478;28;20190;-47
2023/02/01 11:31:27;;;;;;;15.18;13.90;;;5.60;99.90;;;;;;5010614;28;20248;-47
2023/02/01 11:34:08;;;;;;;12.93;11.95;;;5.70;99.90;;;;;;5010448;28;20922;-47
2023/02/01 11:36:36;;;;;;;14.30;13.05;;;5.70;99.90;;;;;;5010305;28;20239;-48
2023/02/01 11:39:29;;;;;;;14.98;13.90;;;5.80;99.90;;;;;;5009540;28;20186;-47
2023/02/01 11:42:16;;;;;;;14.73;13.27;;;5.80;99.90;;;;;;5010090;28;20679;-44
2023/02/01 11:44:44;;;;;;;12.95;12.10;;;5.90;99.90;;;;;;5010167;28;20205;-45
2023/02/01 11:47:39;;;;;;;14.48;13.10;;;6.00;99.90;;;;;;5010042;28;20244;-47
2023/02/01 11:50:17;;;;;;;14.32;13.00;;;6.00;99.90;;;;;;5004769;28;20286;-46
2023/02/01 11:53:04;;;;;;;14.88;13.48;;;6.10;99.90;;;;;;5002784;28;20534;-48
2023/02/01 11:56:06;;;;;;;13.90;12.70;;;6.20;99.90;;;;;;4998328;28;20183;-46
2023/02/01 11:58:39;;;;;;;13.70;12.60;;;6.20;99.90;;;;;;5013007;28;20170;-44
2023/02/01 12:01:37;;;;;;;14.02;13.00;;;6.40;99.90;;;;;;5002066;28;20188;-47
2023/02/01 12:04:26;;;;;;;13.75;12.95;;;6.40;99.90;;;;;;4936651;28;20551;-45
2023/02/01 12:07:01;;;;;;;14.60;13.60;;;6.30;99.90;;;;;;4990092;28;20180;-45
2023/02/01 12:09:42;;;;;;;14.00;12.90;;;6.30;99.90;;;;;;4990379;28;20194;-44
2023/02/01 12:12:33;;;;;;;15.55;14.25;;;6.20;99.90;;;;;;4959779;28;20187;-43
2023/02/01 12:15:16;;;;;;;14.57;13.27;;;6.20;99.90;;;;;;4995453;28;20203;-43
2023/02/01 12:18:01;;;;;;;12.82;11.90;;;6.30;99.90;;;;;;4991344;28;20212;-44
2023/02/01 12:21:03;;;;;;;14.30;12.90;;;6.30;99.90;;;;;;4990142;28;20283;-45
2023/02/01 12:24:05;;;;;;;12.50;11.57;;;6.30;99.90;;;;;;5003110;28;20215;-46
2023/02/01 12:26:54;;;;;;;13.40;12.50;;;6.40;99.90;;;;;;4993759;28;20179;-47
2023/02/01 12:29:53;;;;;;;12.55;11.65;;;6.50;99.90;;;;;;5001673;28;20680;-47
2023/02/01 12:32:33;;;;;;;13.13;12.15;;;6.50;99.90;;;;;;4999628;28;20567;-48
2023/02/01 12:35:19;;;;;;;13.05;12.25;;;6.50;99.90;;;;;;5008406;28;20188;-46
2023/02/01 12:37:55;;;;;;;13.80;12.38;;;6.50;99.90;;;;;;5009433;28;20652;-45
2023/02/01 12:40:30;;;;;;;12.38;11.57;;;6.60;99.90;;;;;;5009468;28;20598;-44
2023/02/01 12:43:21;;;;;;;11.85;10.85;;;6.70;99.90;;;;;;4997700;28;20203;-47
2023/02/01 12:46:02;;;;;;;12.85;11.75;;;6.60;99.90;;;;;;4990034;28;20184;-44
2023/02/01 12:48:44;;;;;;;13.50;12.60;;;6.70;99.90;;;;;;4989735;28;20207;-47
2023/02/01 12:51:13;;;;;;;11.68;10.80;;;6.60;99.90;;;;;;4989728;28;20176;-43
2023/02/01 12:53:54;;;;;;;12.90;11.63;;;6.70;99.90;;;;;;4989828;28;20183;-45
2023/02/01 12:56:44;;;;;;;12.40;11.60;;;6.70;99.90;;;;;;4975892;28;20187;-44
2023/02/01 12:59:27;;;;;;;13.25;12.38;;;6.80;99.90;;;;;;5007952;28;20184;-46
2023/02/01 13:02:15;;;;;;;13.07;12.10;;;6.80;99.90;;;;;;4989858;28;20180;-46
2023/02/01 13:04:53;;;;;;;14.25;13.10;;;6.80;99.90;;;;;;4989952;28;20270;-44
2023/02/01 13:07:25;;;;;;;13.10;11.98;;;6.80;99.90;;;;;;4989700;28;20573;-45
2023/02/01 13:10:15;;;;;;;13.45;12.38;;;6.90;99.90;;;;;;4989875;28;20180;-44
2023/02/01 13:12:47;;;;;;;11.95;11.15;;;7.00;99.90;;;;;;4995016;28;20314;-44
2023/02/01 13:15:36;;;;;;;12.68;11.82;;;7.10;99.90;;;;;;4989447;28;20187;-48
2023/02/01 13:18:04;;;;;;;13.05;12.32;;;7.10;99.90;;;;;;4989647;28;20190;-49
2023/02/01 13:20:37;;;;;;;12.85;12.05;;;7.00;99.90;;;;;;4989586;28;20179;-44
2023/02/01 13:23:14;;;;;;;14.68;13.38;;;7.00;99.90;;;;;;4989580;28;20467;-49